Kennebunkport, ME

4:10 PM EST on January 31, 2015 (GMT -0500)
Seaspray | Change Station
CLOSE
Current Station
Personal Weather Station
Location: Biddeford, ME
Elevation: 20 ft
Nearby Weather Stations
Active Advisory: Winter Storm Watch Active Notice: Public Information Statement

Elev 20 ft 43.41 °N, 70.38 °W | Updated 6 minutes ago

Partly Cloudy
Partly Cloudy
23.0 °F
Feels Like 17 °F
N
5.0
Wind Variable Wind from ESE
Gusts 13.0 mph

Today
High -- | Low -- °F
--% Chance of Precip.
Yesterday
High -- | Low -- °F
Precip. -- in
6:59 AM 4:51 PM
Waxing Gibbous, 91% visible
Pressure 29.82 in
Visibility 6.0 miles
Clouds Clear
Windchill 17 °F
Dew Point 2 °F
Humidity 40%
Rainfall 0.22 in
Snow Depth Not available.
UV 1 out of 12
Pollen .10 out of 12
Air Quality Not available.
Flu Activity Not available.
METAR KSFM 312035Z AUTO 30013G26KT 6SM CLR M09/M21 A2982 RMK AO1

More Conditions Fewer Conditions

Pressure 29.82 in
Visibility 6.0 miles
Clouds Clear
Windchill 17 °F
Dew Point 2 °F
Humidity 40%
Rainfall 0.22 in
Snow Depth Not available.
UV 1 out of 12
Pollen .10 out of 12
Air Quality Not available.
Flu Activity Not available.
METAR KSFM 312035Z AUTO 30013G26KT 6SM CLR M09/M21 A2982 RMK AO1

More Conditions Fewer Conditions

10-Day Weather Forecast

Almanac

Astronomy

Jan. 31, 2015 Rise Set
Actual Time
Civil Twilight
Nautical Twilight
Astronomical Twilight
Moon
Length of Visible Light
Length of Day
Tomorrow will be .
, % of the Moon is Illuminated

Today's Extremes

State Highs State Lows

Community

WunderPhotos

Upload Photos

1,792,203 photos uploaded!

WunderBlogs® & News

Nearby

Air Quality

  Air Quality AQ Index Pollutant
Not available.

Snow Depth

Station Depth Elevation

Earthquake Activity

City Distance Mag. Time & Date
Minimum magnitude displayed is 2.5.

Coastal Water Temperatures

Place Temperature

Nearby Weather Stations